sensor_id;sensor_type;location;lat;lon;timestamp;pressure;altitude;pressure_sealevel;temperature;humidity
12759;BME280;20944;47.048;15.390;2022-11-15T00:01:15;97802.03;;;9.06;100.00
12759;BME280;20944;47.048;15.390;2022-11-15T00:03:46;97773.66;;;8.85;100.00
12759;BME280;20944;47.048;15.390;2022-11-15T00:06:18;97802.06;;;9.03;100.00
12759;BME280;20944;47.048;15.390;2022-11-15T00:08:46;97800.53;;;8.93;100.00
12759;BME280;20944;47.048;15.390;2022-11-15T00:11:15;97799.00;;;8.81;100.00
12759;BME280;20944;47.048;15.390;2022-11-15T00:13:43;97789.56;;;8.73;100.00
12759;BME280;20944;47.048;15.390;2022-11-15T00:16:11;97783.53;;;8.71;100.00
12759;BME280;20944;47.048;15.390;2022-11-15T00:18:39;97789.41;;;8.82;100.00
12759;BME280;20944;47.048;15.390;2022-11-15T00:21:17;97797.25;;;8.82;100.00
12759;BME280;20944;47.048;15.390;2022-11-15T00:23:45;97795.47;;;8.84;100.00
12759;BME280;20944;47.048;15.390;2022-11-15T00:26:14;97779.91;;;8.78;100.00
12759;BME280;20944;47.048;15.390;2022-11-15T00:28:43;97901.66;;;8.88;100.00
12759;BME280;20944;47.048;15.390;2022-11-15T00:31:13;97773.81;;;8.77;100.00
12759;BME280;20944;47.048;15.390;2022-11-15T00:33:43;97803.97;;;8.95;100.00
12759;BME280;20944;47.048;15.390;2022-11-15T00:36:12;97796.09;;;8.97;100.00
12759;BME280;20944;47.048;15.390;2022-11-15T00:38:42;97790.06;;;8.95;100.00
12759;BME280;20944;47.048;15.390;2022-11-15T00:41:10;97769.09;;;8.96;100.00
12759;BME280;20944;47.048;15.390;2022-11-15T00:43:38;97793.34;;;9.06;100.00
12759;BME280;20944;47.048;15.390;2022-11-15T00:46:10;97758.84;;;8.87;100.00
12759;BME280;20944;47.048;15.390;2022-11-15T00:48:38;97786.44;;;9.02;100.00
12759;BME280;20944;47.048;15.390;2022-11-15T00:51:07;97788.22;;;9.00;100.00
12759;BME280;20944;47.048;15.390;2022-11-15T00:53:35;97777.78;;;8.98;100.00
12759;BME280;20944;47.048;15.390;2022-11-15T00:56:05;97758.78;;;8.90;100.00
12759;BME280;20944;47.048;15.390;2022-11-15T00:58:33;97776.88;;;9.01;100.00
12759;BME280;20944;47.048;15.390;2022-11-15T01:01:06;97779.34;;;9.08;100.00
12759;BME280;20944;47.048;15.390;2022-11-15T01:03:35;97768.88;;;9.08;100.00
12759;BME280;20944;47.048;15.390;2022-11-15T01:06:04;97719.91;;;8.73;100.00
12759;BME280;20944;47.048;15.390;2022-11-15T01:08:33;97739.59;;;8.91;100.00
12759;BME280;20944;47.048;15.390;2022-11-15T01:11:02;97620.72;;;8.24;100.00
12759;BME280;20944;47.048;15.390;2022-11-15T01:13:33;97746.41;;;8.98;100.00
12759;BME280;20944;47.048;15.390;2022-11-15T01:16:06;97741.13;;;9.01;100.00
12759;BME280;20944;47.048;15.390;2022-11-15T01:18:34;97735.22;;;8.91;100.00
12759;BME280;20944;47.048;15.390;2022-11-15T01:21:06;97743.06;;;8.93;100.00
12759;BME280;20944;47.048;15.390;2022-11-15T01:23:34;97736.22;;;8.84;100.00
12759;BME280;20944;47.048;15.390;2022-11-15T01:26:04;97752.59;;;8.94;100.00
12759;BME280;20944;47.048;15.390;2022-11-15T01:28:35;97755.06;;;9.02;100.00
12759;BME280;20944;47.048;15.390;2022-11-15T01:31:08;97727.56;;;8.82;100.00
12759;BME280;20944;47.048;15.390;2022-11-15T01:33:37;97773.47;;;8.96;100.00
12759;BME280;20944;47.048;15.390;2022-11-15T01:36:06;97748.19;;;8.96;100.00
12759;BME280;20944;47.048;15.390;2022-11-15T01:38:35;97745.78;;;8.85;100.00
12759;BME280;20944;47.048;15.390;2022-11-15T01:41:03;97744.16;;;8.81;100.00
12759;BME280;20944;47.048;15.390;2022-11-15T01:43:35;97711.34;;;8.65;100.00
12759;BME280;20944;47.048;15.390;2022-11-15T01:46:09;97749.25;;;8.87;100.00
12759;BME280;20944;47.048;15.390;2022-11-15T01:48:43;97757.84;;;8.94;100.00
12759;BME280;20944;47.048;15.390;2022-11-15T01:51:13;97746.41;;;9.00;100.00
12759;BME280;20944;47.048;15.390;2022-11-15T01:53:46;97749.03;;;8.98;100.00
12759;BME280;20944;47.048;15.390;2022-11-15T01:56:18;97733.56;;;8.87;100.00
12759;BME280;20944;47.048;15.390;2022-11-15T01:58:50;97733.53;;;8.89;100.00
12759;BME280;20944;47.048;15.390;2022-11-15T02:01:19;97741.38;;;8.89;100.00
12759;BME280;20944;47.048;15.390;2022-11-15T02:03:50;97716.53;;;8.67;100.00
12759;BME280;20944;47.048;15.390;2022-11-15T02:06:20;97730.41;;;8.70;100.00
12759;BME280;20944;47.048;15.390;2022-11-15T02:08:50;97728.47;;;8.80;100.00
12759;BME280;20944;47.048;15.390;2022-11-15T02:11:18;97726.88;;;8.73;100.00
12759;BME280;20944;47.048;15.390;2022-11-15T02:13:47;97717.28;;;8.75;100.00
12759;BME280;20944;47.048;15.390;2022-11-15T02:16:24;97718.22;;;8.71;100.00
12759;BME280;20944;47.048;15.390;2022-11-15T02:19:00;97721.38;;;8.40;100.00
12759;BME280;20944;47.048;15.390;2022-11-15T02:21:36;97716.00;;;8.48;100.00
12759;BME280;20944;47.048;15.390;2022-11-15T02:24:35;97710.78;;;8.49;100.00
12759;BME280;20944;47.048;15.390;2022-11-15T02:27:53;97713.38;;;8.51;100.00
12759;BME280;20944;47.048;15.390;2022-11-15T02:30:36;97705.47;;;8.54;100.00
12759;BME280;20944;47.048;15.390;2022-11-15T02:33:14;97667.59;;;8.30;100.00
12759;BME280;20944;47.048;15.390;2022-11-15T02:35:54;97711.44;;;8.60;100.00
12759;BME280;20944;47.048;15.390;2022-11-15T02:38:31;97705.09;;;8.74;100.00
12759;BME280;20944;47.048;15.390;2022-11-15T02:41:02;97619.19;;;8.10;100.00
12759;BME280;20944;47.048;15.390;2022-11-15T02:43:37;97694.94;;;8.58;100.00
12759;BME280;20944;47.048;15.390;2022-11-15T02:46:31;97704.56;;;8.56;100.00
12759;BME280;20944;47.048;15.390;2022-11-15T02:49:19;97697.72;;;8.49;100.00
12759;BME280;20944;47.048;15.390;2022-11-15T02:51:49;97597.75;;;7.95;100.00
12759;BME280;20944;47.048;15.390;2022-11-15T02:54:21;97664.00;;;8.37;100.00
12759;BME280;20944;47.048;15.390;2022-11-15T02:56:52;97672.56;;;8.45;100.00
12759;BME280;20944;47.048;15.390;2022-11-15T02:59:50;97689.88;;;8.51;100.00
12759;BME280;20944;47.048;15.390;2022-11-15T03:02:33;97695.13;;;8.49;100.00
12759;BME280;20944;47.048;15.390;2022-11-15T03:05:12;97670.22;;;8.30;100.00
12759;BME280;20944;47.048;15.390;2022-11-15T03:07:51;97688.41;;;8.36;100.00
12759;BME280;20944;47.048;15.390;2022-11-15T03:10:33;97683.00;;;8.45;100.00
12759;BME280;20944;47.048;15.390;2022-11-15T03:13:13;97671.75;;;8.42;100.00
12759;BME280;20944;47.048;15.390;2022-11-15T03:15:49;97679.56;;;8.43;100.00
12759;BME280;20944;47.048;15.390;2022-11-15T03:18:25;97673.47;;;8.43;100.00
12759;BME280;20944;47.048;15.390;2022-11-15T03:20:57;97660.50;;;8.35;100.00
12759;BME280;20944;47.048;15.390;2022-11-15T03:23:28;97667.50;;;8.34;100.00
12759;BME280;20944;47.048;15.390;2022-11-15T03:25:59;97678.03;;;8.30;100.00
12759;BME280;20944;47.048;15.390;2022-11-15T03:28:32;97666.94;;;8.17;100.00
12759;BME280;20944;47.048;15.390;2022-11-15T03:31:03;97665.00;;;8.28;100.00
12759;BME280;20944;47.048;15.390;2022-11-15T03:33:55;97660.63;;;8.29;100.00
12759;BME280;20944;47.048;15.390;2022-11-15T03:36:25;97627.88;;;8.13;100.00
12759;BME280;20944;47.048;15.390;2022-11-15T03:38:56;97664.00;;;8.35;100.00
12759;BME280;20944;47.048;15.390;2022-11-15T03:41:35;97664.84;;;8.39;100.00
12759;BME280;20944;47.048;15.390;2022-11-15T03:44:11;97649.22;;;8.34;100.00
12759;BME280;20944;47.048;15.390;2022-11-15T03:46:47;97671.78;;;8.40;100.00
12759;BME280;20944;47.048;15.390;2022-11-15T03:49:24;97666.00;;;8.21;100.00
12759;BME280;20944;47.048;15.390;2022-11-15T03:51:56;97587.47;;;7.85;100.00
12759;BME280;20944;47.048;15.390;2022-11-15T03:54:25;97616.81;;;8.00;100.00
12759;BME280;20944;47.048;15.390;2022-11-15T03:56:53;97639.97;;;8.17;100.00
12759;BME280;20944;47.048;15.390;2022-11-15T03:59:21;97607.97;;;8.07;100.00
12759;BME280;20944;47.048;15.390;2022-11-15T04:01:49;97685.84;;;8.31;100.00
12759;BME280;20944;47.048;15.390;2022-11-15T04:04:19;97653.34;;;8.00;100.00
12759;BME280;20944;47.048;15.390;2022-11-15T04:06:47;97639.66;;;7.84;100.00
12759;BME280;20944;47.048;15.390;2022-11-15T04:09:16;97653.53;;;7.88;100.00
12759;BME280;20944;47.048;15.390;2022-11-15T04:11:44;97659.44;;;7.97;100.00
12759;BME280;20944;47.048;15.390;2022-11-15T04:14:12;97655.84;;;8.04;100.00
12759;BME280;20944;47.048;15.390;2022-11-15T04:16:41;97535.44;;;7.28;100.00
12759;BME280;20944;47.048;15.390;2022-11-15T04:19:10;97650.28;;;8.23;100.00
12759;BME280;20944;47.048;15.390;2022-11-15T04:21:56;97645.94;;;8.25;100.00
12759;BME280;20944;47.048;15.390;2022-11-15T04:24:42;97633.09;;;8.13;100.00
12759;BME280;20944;47.048;15.390;2022-11-15T04:27:10;97628.00;;;8.06;100.00
12759;BME280;20944;47.048;15.390;2022-11-15T04:29:42;97637.25;;;8.23;100.00
12759;BME280;20944;47.048;15.390;2022-11-15T04:32:10;97633.78;;;8.22;100.00
12759;BME280;20944;47.048;15.390;2022-11-15T04:34:38;97614.88;;;8.09;100.00
12759;BME280;20944;47.048;15.390;2022-11-15T04:37:08;97605.41;;;8.05;100.00
12759;BME280;20944;47.048;15.390;2022-11-15T04:39:38;97583.78;;;7.99;100.00
12759;BME280;20944;47.048;15.390;2022-11-15T04:42:07;97557.19;;;7.77;100.00
12759;BME280;20944;47.048;15.390;2022-11-15T04:44:35;97609.53;;;8.17;100.00
12759;BME280;20944;47.048;15.390;2022-11-15T04:47:04;97605.09;;;8.21;100.00
12759;BME280;20944;47.048;15.390;2022-11-15T04:49:32;97607.72;;;8.21;100.00
12759;BME280;20944;47.048;15.390;2022-11-15T04:52:00;97563.94;;;7.89;100.00
12759;BME280;20944;47.048;15.390;2022-11-15T04:54:30;97610.31;;;8.21;100.00
12759;BME280;20944;47.048;15.390;2022-11-15T04:56:58;97545.72;;;7.87;100.00
12759;BME280;20944;47.048;15.390;2022-11-15T04:59:26;97588.00;;;8.04;100.00
12759;BME280;20944;47.048;15.390;2022-11-15T05:01:55;97596.38;;;8.22;100.00
12759;BME280;20944;47.048;15.390;2022-11-15T05:04:23;97578.34;;;8.11;100.00
12759;BME280;20944;47.048;15.390;2022-11-15T05:06:50;97592.94;;;8.20;100.00
12759;BME280;20944;47.048;15.390;2022-11-15T05:09:20;97562.78;;;8.05;100.00
12759;BME280;20944;47.048;15.390;2022-11-15T05:11:50;97594.50;;;8.30;100.00
12759;BME280;20944;47.048;15.390;2022-11-15T05:14:18;97584.78;;;8.38;100.00
12759;BME280;20944;47.048;15.390;2022-11-15T05:16:46;97582.91;;;8.45;100.00
12759;BME280;20944;47.048;15.390;2022-11-15T05:19:14;97570.03;;;8.37;100.00
12759;BME280;20944;47.048;15.390;2022-11-15T05:21:43;97572.38;;;8.49;100.00
12759;BME280;20944;47.048;15.390;2022-11-15T05:24:11;97610.63;;;8.52;100.00
12759;BME280;20944;47.048;15.390;2022-11-15T05:26:40;97573.22;;;8.51;100.00
12759;BME280;20944;47.048;15.390;2022-11-15T05:29:10;97584.31;;;8.62;100.00
12759;BME280;20944;47.048;15.390;2022-11-15T05:31:40;97499.31;;;8.03;100.00
12759;BME280;20944;47.048;15.390;2022-11-15T05:34:09;97551.75;;;8.35;100.00
12759;BME280;20944;47.048;15.390;2022-11-15T05:36:40;97574.16;;;8.49;100.00
12759;BME280;20944;47.048;15.390;2022-11-15T05:39:09;97541.31;;;8.34;100.00
12759;BME280;20944;47.048;15.390;2022-11-15T05:41:40;97562.72;;;8.53;100.00
12759;BME280;20944;47.048;15.390;2022-11-15T05:44:13;97576.00;;;8.42;100.00
12759;BME280;20944;47.048;15.390;2022-11-15T05:46:44;97575.00;;;8.49;100.00
12759;BME280;20944;47.048;15.390;2022-11-15T05:49:14;97578.53;;;8.47;100.00
12759;BME280;20944;47.048;15.390;2022-11-15T05:51:46;97583.03;;;8.38;100.00
12759;BME280;20944;47.048;15.390;2022-11-15T05:54:16;97447.00;;;7.67;100.00
12759;BME280;20944;47.048;15.390;2022-11-15T05:56:46;97569.13;;;8.35;100.00
12759;BME280;20944;47.048;15.390;2022-11-15T05:59:16;97584.78;;;8.38;100.00
12759;BME280;20944;47.048;15.390;2022-11-15T06:01:45;97447.50;;;7.40;100.00
12759;BME280;20944;47.048;15.390;2022-11-15T06:04:13;97590.25;;;8.24;100.00
12759;BME280;20944;47.048;15.390;2022-11-15T06:06:41;97587.72;;;8.20;100.00
12759;BME280;20944;47.048;15.390;2022-11-15T06:09:09;97579.34;;;8.02;100.00
12759;BME280;20944;47.048;15.390;2022-11-15T06:11:38;97602.78;;;8.05;100.00
12759;BME280;20944;47.048;15.390;2022-11-15T06:14:06;97592.22;;;8.13;100.00
12759;BME280;20944;47.048;15.390;2022-11-15T06:16:35;97562.09;;;7.95;100.00
12759;BME280;20944;47.048;15.390;2022-11-15T06:19:05;97604.41;;;8.13;100.00
12759;BME280;20944;47.048;15.390;2022-11-15T06:21:34;97601.66;;;8.19;100.00
12759;BME280;20944;47.048;15.390;2022-11-15T06:24:02;97591.06;;;8.26;100.00
12759;BME280;20944;47.048;15.390;2022-11-15T06:26:30;97587.69;;;8.21;100.00
12759;BME280;20944;47.048;15.390;2022-11-15T06:28:59;97614.41;;;8.35;100.00
12759;BME280;20944;47.048;15.390;2022-11-15T06:31:27;97597.28;;;8.21;100.00
12759;BME280;20944;47.048;15.390;2022-11-15T06:33:56;97611.22;;;8.20;100.00
12759;BME280;20944;47.048;15.390;2022-11-15T06:36:25;97624.19;;;8.24;100.00
12759;BME280;20944;47.048;15.390;2022-11-15T06:38:53;97614.72;;;8.19;100.00
12759;BME280;20944;47.048;15.390;2022-11-15T06:41:21;97618.19;;;8.19;100.00
12759;BME280;20944;47.048;15.390;2022-11-15T06:43:49;97618.84;;;8.29;100.00
12759;BME280;20944;47.048;15.390;2022-11-15T06:46:17;97544.84;;;7.88;100.00
12759;BME280;20944;47.048;15.390;2022-11-15T06:48:46;97581.09;;;8.02;100.00
12759;BME280;20944;47.048;15.390;2022-11-15T06:51:15;97618.94;;;8.26;100.00
12759;BME280;20944;47.048;15.390;2022-11-15T06:53:44;97623.19;;;8.31;100.00
12759;BME280;20944;47.048;15.390;2022-11-15T06:56:12;97616.25;;;8.29;100.00
12759;BME280;20944;47.048;15.390;2022-11-15T06:58:40;97619.03;;;8.20;100.00
12759;BME280;20944;47.048;15.390;2022-11-15T07:01:10;97614.59;;;8.25;100.00
12759;BME280;20944;47.048;15.390;2022-11-15T07:03:41;97613.75;;;8.23;100.00
12759;BME280;20944;47.048;15.390;2022-11-15T07:06:10;97621.69;;;8.17;100.00
12759;BME280;20944;47.048;15.390;2022-11-15T07:08:39;97611.28;;;8.15;100.00
12759;BME280;20944;47.048;15.390;2022-11-15T07:11:08;97598.41;;;8.07;100.00
12759;BME280;20944;47.048;15.390;2022-11-15T07:13:37;97591.38;;;8.09;100.00
12759;BME280;20944;47.048;15.390;2022-11-15T07:16:07;97611.16;;;8.23;100.00
12759;BME280;20944;47.048;15.390;2022-11-15T07:18:36;97604.88;;;8.33;100.00
12759;BME280;20944;47.048;15.390;2022-11-15T07:21:06;97604.94;;;8.30;100.00
12759;BME280;20944;47.048;15.390;2022-11-15T07:23:36;97605.06;;;8.22;100.00
12759;BME280;20944;47.048;15.390;2022-11-15T07:26:06;97599.88;;;8.21;100.00
12759;BME280;20944;47.048;15.390;2022-11-15T07:28:35;97596.56;;;8.13;100.00
12759;BME280;20944;47.048;15.390;2022-11-15T07:31:04;97601.47;;;8.28;100.00
12759;BME280;20944;47.048;15.390;2022-11-15T07:33:33;97573.91;;;8.15;100.00
12759;BME280;20944;47.048;15.390;2022-11-15T07:36:02;97509.38;;;7.78;100.00
12759;BME280;20944;47.048;15.390;2022-11-15T07:38:31;97574.59;;;8.24;100.00
12759;BME280;20944;47.048;15.390;2022-11-15T07:41:08;97574.44;;;8.32;100.00
12759;BME280;20944;47.048;15.390;2022-11-15T07:43:36;97586.44;;;8.44;100.00
12759;BME280;20944;47.048;15.390;2022-11-15T07:46:05;97428.19;;;7.50;100.00
12759;BME280;20944;47.048;15.390;2022-11-15T07:48:36;97450.44;;;7.69;100.00
12759;BME280;20944;47.048;15.390;2022-11-15T07:51:11;97426.09;;;7.69;100.00
12759;BME280;20944;47.048;15.390;2022-11-15T07:53:40;97554.00;;;8.55;100.00
12759;BME280;20944;47.048;15.390;2022-11-15T07:56:10;97428.50;;;7.78;100.00
12759;BME280;20944;47.048;15.390;2022-11-15T07:58:38;97580.50;;;8.77;100.00
12759;BME280;20944;47.048;15.390;2022-11-15T08:01:08;97583.06;;;8.79;100.00
12759;BME280;20944;47.048;15.390;2022-11-15T08:03:37;97585.63;;;8.82;100.00
12759;BME280;20944;47.048;15.390;2022-11-15T08:06:05;97559.69;;;8.73;100.00
12759;BME280;20944;47.048;15.390;2022-11-15T08:08:33;97572.47;;;8.85;100.00
12759;BME280;20944;47.048;15.390;2022-11-15T08:11:02;97565.50;;;8.87;100.00
12759;BME280;20944;47.048;15.390;2022-11-15T08:13:31;97588.84;;;8.95;100.00
12759;BME280;20944;47.048;15.390;2022-11-15T08:16:01;97581.19;;;8.85;100.00
12759;BME280;20944;47.048;15.390;2022-11-15T08:18:32;97579.50;;;8.83;100.00
12759;BME280;20944;47.048;15.390;2022-11-15T08:21:00;97589.13;;;8.81;100.00
12759;BME280;20944;47.048;15.390;2022-11-15T08:23:29;97579.50;;;8.83;100.00
12759;BME280;20944;47.048;15.390;2022-11-15T08:26:00;97564.59;;;8.88;100.00
12759;BME280;20944;47.048;15.390;2022-11-15T08:28:31;97554.28;;;8.82;100.00
12759;BME280;20944;47.048;15.390;2022-11-15T08:30:59;97571.44;;;8.94;100.00
12759;BME280;20944;47.048;15.390;2022-11-15T08:33:28;97575.00;;;8.89;100.00
12759;BME280;20944;47.048;15.390;2022-11-15T08:35:57;97552.72;;;8.73;100.00
12759;BME280;20944;47.048;15.390;2022-11-15T08:38:26;97568.25;;;8.79;100.00
12759;BME280;20944;47.048;15.390;2022-11-15T08:41:00;97561.28;;;8.80;100.00
12759;BME280;20944;47.048;15.390;2022-11-15T08:43:30;97549.25;;;8.73;100.00
12759;BME280;20944;47.048;15.390;2022-11-15T08:45:59;97566.47;;;8.81;100.00
12759;BME280;20944;47.048;15.390;2022-11-15T08:48:27;97534.41;;;8.75;100.00
12759;BME280;20944;47.048;15.390;2022-11-15T08:50:56;97537.84;;;8.77;100.00
12759;BME280;20944;47.048;15.390;2022-11-15T08:53:24;97549.59;;;8.96;100.00
12759;BME280;20944;47.048;15.390;2022-11-15T08:55:53;97555.50;;;9.04;100.00
12759;BME280;20944;47.048;15.390;2022-11-15T08:58:21;97150.88;;;6.76;100.00
12759;BME280;20944;47.048;15.390;2022-11-15T09:00:51;97548.22;;;9.18;100.00
12759;BME280;20944;47.048;15.390;2022-11-15T09:03:19;97549.69;;;9.30;100.00
12759;BME280;20944;47.048;15.390;2022-11-15T09:05:47;97547.03;;;9.32;100.00
12759;BME280;20944;47.048;15.390;2022-11-15T09:08:16;97516.00;;;9.18;100.00
12759;BME280;20944;47.048;15.390;2022-11-15T09:11:05;97546.22;;;9.28;100.00
12759;BME280;20944;47.048;15.390;2022-11-15T09:13:33;97538.19;;;9.36;100.00
12759;BME280;20944;47.048;15.390;2022-11-15T09:16:05;97551.97;;;9.42;100.00
12759;BME280;20944;47.048;15.390;2022-11-15T09:18:34;97546.84;;;9.39;100.00
12759;BME280;20944;47.048;15.390;2022-11-15T09:21:02;97544.38;;;9.33;100.00
12759;BME280;20944;47.048;15.390;2022-11-15T09:23:31;97447.25;;;8.77;100.00
12759;BME280;20944;47.048;15.390;2022-11-15T09:26:00;97548.53;;;9.40;100.00
12759;BME280;20944;47.048;15.390;2022-11-15T09:28:30;97550.25;;;9.43;100.00
12759;BME280;20944;47.048;15.390;2022-11-15T09:31:01;97540.66;;;9.43;100.00
12759;BME280;20944;47.048;15.390;2022-11-15T09:33:31;97541.38;;;9.49;100.00
12759;BME280;20944;47.048;15.390;2022-11-15T09:36:01;97539.53;;;9.52;100.00
12759;BME280;20944;47.048;15.390;2022-11-15T09:38:30;97485.53;;;9.15;100.00
12759;BME280;20944;47.048;15.390;2022-11-15T09:41:17;97538.69;;;9.52;100.00
12759;BME280;20944;47.048;15.390;2022-11-15T09:43:57;97438.25;;;8.90;100.00
12759;BME280;20944;47.048;15.390;2022-11-15T09:46:34;97509.22;;;9.45;100.00
12759;BME280;20944;47.048;15.390;2022-11-15T09:49:08;97523.00;;;9.52;100.00
12759;BME280;20944;47.048;15.390;2022-11-15T09:51:39;97479.81;;;9.35;100.00
12759;BME280;20944;47.048;15.390;2022-11-15T09:54:21;97521.22;;;9.52;100.00
12759;BME280;20944;47.048;15.390;2022-11-15T09:57:16;97382.91;;;8.75;100.00
12759;BME280;20944;47.048;15.390;2022-11-15T09:59:54;97405.97;;;8.93;100.00
12759;BME280;20944;47.048;15.390;2022-11-15T10:02:46;97504.88;;;9.44;100.00
12759;BME280;20944;47.048;15.390;2022-11-15T10:05:20;97499.47;;;9.52;100.00
12759;BME280;20944;47.048;15.390;2022-11-15T10:07:57;97381.41;;;8.99;100.00
12759;BME280;20944;47.048;15.390;2022-11-15T10:10:34;97485.78;;;9.75;100.00
12759;BME280;20944;47.048;15.390;2022-11-15T10:13:04;97479.38;;;9.85;100.00
12759;BME280;20944;47.048;15.390;2022-11-15T10:15:33;97472.88;;;9.99;100.00
12759;BME280;20944;47.048;15.390;2022-11-15T10:18:09;97449.91;;;10.09;100.00
12759;BME280;20944;47.048;15.390;2022-11-15T10:20:47;97448.59;;;10.25;100.00
12759;BME280;20944;47.048;15.390;2022-11-15T10:23:18;97319.78;;;9.54;100.00
12759;BME280;20944;47.048;15.390;2022-11-15T10:25:47;97458.72;;;10.38;100.00
12759;BME280;20944;47.048;15.390;2022-11-15T10:28:17;97366.22;;;9.77;100.00
12759;BME280;20944;47.048;15.390;2022-11-15T10:30:51;97436.41;;;10.24;100.00
12759;BME280;20944;47.048;15.390;2022-11-15T10:33:25;97417.69;;;10.07;100.00
12759;BME280;20944;47.048;15.390;2022-11-15T10:36:23;97440.78;;;10.22;100.00
12759;BME280;20944;47.048;15.390;2022-11-15T10:38:57;97332.47;;;9.67;100.00
12759;BME280;20944;47.048;15.390;2022-11-15T10:41:35;97352.91;;;9.84;100.00
12759;BME280;20944;47.048;15.390;2022-11-15T10:44:31;97398.09;;;10.20;100.00
12759;BME280;20944;47.048;15.390;2022-11-15T10:47:22;97407.19;;;10.38;100.00
12759;BME280;20944;47.048;15.390;2022-11-15T10:49:56;97409.84;;;10.37;100.00
12759;BME280;20944;47.048;15.390;2022-11-15T10:52:26;97406.22;;;10.41;100.00
12759;BME280;20944;47.048;15.390;2022-11-15T10:54:57;97404.59;;;10.37;100.00
12759;BME280;20944;47.048;15.390;2022-11-15T10:57:29;97439.72;;;10.30;100.00
12759;BME280;20944;47.048;15.390;2022-11-15T11:00:01;97401.34;;;10.29;100.00
12759;BME280;20944;47.048;15.390;2022-11-15T11:02:32;97395.31;;;10.26;100.00
12759;BME280;20944;47.048;15.390;2022-11-15T11:05:03;97358.19;;;10.12;100.00
12759;BME280;20944;47.048;15.390;2022-11-15T11:07:35;97362.38;;;10.18;100.00
12759;BME280;20944;47.048;15.390;2022-11-15T11:10:16;97383.09;;;10.27;100.00
12759;BME280;20944;47.048;15.390;2022-11-15T11:13:15;97369.59;;;10.10;100.00
12759;BME280;20944;47.048;15.390;2022-11-15T11:15:55;97367.47;;;10.22;100.00
12759;BME280;20944;47.048;15.390;2022-11-15T11:18:32;97357.75;;;10.27;100.00
12759;BME280;20944;47.048;15.390;2022-11-15T11:21:07;97361.16;;;10.30;100.00
12759;BME280;20944;47.048;15.390;2022-11-15T11:23:45;97340.28;;;10.28;100.00
12759;BME280;20944;47.048;15.390;2022-11-15T11:26:35;97296.69;;;9.97;100.00
12759;BME280;20944;47.048;15.390;2022-11-15T11:29:21;97350.94;;;10.50;100.00
12759;BME280;20944;47.048;15.390;2022-11-15T11:31:59;97343.13;;;10.48;100.00
12759;BME280;20944;47.048;15.390;2022-11-15T11:34:42;97329.34;;;10.43;100.00
12759;BME280;20944;47.048;15.390;2022-11-15T11:37:20;97344.41;;;10.35;100.00
12759;BME280;20944;47.048;15.390;2022-11-15T11:40:05;97299.22;;;10.00;100.00
12759;BME280;20944;47.048;15.390;2022-11-15T11:42:45;97323.25;;;10.13;100.00
12759;BME280;20944;47.048;15.390;2022-11-15T11:45:24;97323.94;;;10.20;100.00
12759;BME280;20944;47.048;15.390;2022-11-15T11:47:59;97323.66;;;10.29;100.00
12759;BME280;20944;47.048;15.390;2022-11-15T11:50:32;97276.47;;;10.03;100.00
12759;BME280;20944;47.048;15.390;2022-11-15T11:53:09;97308.28;;;10.17;100.00
12759;BME280;20944;47.048;15.390;2022-11-15T11:55:44;97279.81;;;10.08;100.00
12759;BME280;20944;47.048;15.390;2022-11-15T11:58:16;97289.97;;;10.17;100.00
12759;BME280;20944;47.048;15.390;2022-11-15T12:00:47;97297.28;;;10.35;100.00
12759;BME280;20944;47.048;15.390;2022-11-15T12:03:25;97259.78;;;10.05;100.00
12759;BME280;20944;47.048;15.390;2022-11-15T12:05:58;97292.28;;;10.27;100.00
12759;BME280;20944;47.048;15.390;2022-11-15T12:08:35;97219.66;;;9.78;100.00
12759;BME280;20944;47.048;15.390;2022-11-15T12:11:12;97269.88;;;10.17;100.00
12759;BME280;20944;47.048;15.390;2022-11-15T12:13:42;97222.19;;;9.81;100.00
12759;BME280;20944;47.048;15.390;2022-11-15T12:16:14;97265.59;;;10.15;100.00
12759;BME280;20944;47.048;15.390;2022-11-15T12:18:47;97274.19;;;10.20;100.00
12759;BME280;20944;47.048;15.390;2022-11-15T12:21:21;97246.81;;;10.02;100.00
12759;BME280;20944;47.048;15.390;2022-11-15T12:23:58;97204.22;;;9.70;100.00
12759;BME280;20944;47.048;15.390;2022-11-15T12:26:35;97263.50;;;9.99;100.00
12759;BME280;20944;47.048;15.390;2022-11-15T12:29:11;97265.03;;;9.77;100.00
12759;BME280;20944;47.048;15.390;2022-11-15T12:31:44;97171.34;;;9.04;100.00
12759;BME280;20944;47.048;15.390;2022-11-15T12:34:31;97157.34;;;9.07;100.00
12759;BME280;20944;47.048;15.390;2022-11-15T12:40:33;97261.09;;;9.64;100.00
12759;BME280;20944;47.048;15.390;2022-11-15T12:46:04;97101.41;;;8.53;100.00
12759;BME280;20944;47.048;15.390;2022-11-15T12:48:49;97255.81;;;9.65;100.00
12759;BME280;20944;47.048;15.390;2022-11-15T12:51:20;97254.00;;;9.67;100.00
12759;BME280;20944;47.048;15.390;2022-11-15T12:53:49;97253.38;;;9.59;100.00
12759;BME280;20944;47.048;15.390;2022-11-15T12:56:21;97250.22;;;9.48;100.00
12759;BME280;20944;47.048;15.390;2022-11-15T12:58:53;97190.53;;;9.03;100.00
12759;BME280;20944;47.048;15.390;2022-11-15T13:02:01;97252.50;;;9.31;100.00
12759;BME280;20944;47.048;15.390;2022-11-15T13:04:35;97218.97;;;9.14;100.00
12759;BME280;20944;47.048;15.390;2022-11-15T13:07:05;97238.84;;;9.19;100.00
12759;BME280;20944;47.048;15.390;2022-11-15T13:09:54;97199.56;;;8.93;100.00
12759;BME280;20944;47.048;15.390;2022-11-15T13:12:57;97233.94;;;9.09;100.00
12759;BME280;20944;47.048;15.390;2022-11-15T13:15:53;97228.75;;;9.07;100.00
12759;BME280;20944;47.048;15.390;2022-11-15T13:18:35;97232.16;;;9.09;100.00
12759;BME280;20944;47.048;15.390;2022-11-15T13:21:19;97223.44;;;9.10;100.00
12759;BME280;20944;47.048;15.390;2022-11-15T13:24:12;97225.16;;;9.11;100.00